sensor_id;sensor_type;location;lat;lon;timestamp;pressure;altitude;pressure_sealevel;temperature;humidity
58295;BME280;45705;55.592;37.460;2023-03-01T00:01:05;98306.84;;;-4.69;59.95
58295;BME280;45705;55.592;37.460;2023-03-01T00:03:32;98303.84;;;-4.85;59.75
58295;BME280;45705;55.592;37.460;2023-03-01T00:05:58;98293.13;;;-4.78;59.75
58295;BME280;45705;55.592;37.460;2023-03-01T00:08:24;98304.41;;;-4.83;59.48
58295;BME280;45705;55.592;37.460;2023-03-01T00:11:06;98290.13;;;-4.70;60.16
58295;BME280;45705;55.592;37.460;2023-03-01T00:13:33;98300.97;;;-4.83;60.23
58295;BME280;45705;55.592;37.460;2023-03-01T00:16:02;98285.63;;;-4.93;60.50
58295;BME280;45705;55.592;37.460;2023-03-01T00:18:28;98287.03;;;-4.79;60.44
58295;BME280;45705;55.592;37.460;2023-03-01T00:20:55;98298.78;;;-4.98;61.05
58295;BME280;45705;55.592;37.460;2023-03-01T00:23:21;98291.41;;;-4.96;61.87
58295;BME280;45705;55.592;37.460;2023-03-01T00:25:47;98296.13;;;-4.98;61.93
58295;BME280;45705;55.592;37.460;2023-03-01T00:28:13;98294.06;;;-4.96;61.37
58295;BME280;45705;55.592;37.460;2023-03-01T00:30:39;98303.44;;;-5.12;62.38
58295;BME280;45705;55.592;37.460;2023-03-01T00:33:05;98298.06;;;-5.05;62.31
58295;BME280;45705;55.592;37.460;2023-03-01T00:35:32;98291.13;;;-5.06;61.88
58295;BME280;45705;55.592;37.460;2023-03-01T00:37:58;98301.28;;;-5.03;62.16
58295;BME280;45705;55.592;37.460;2023-03-01T00:40:24;98298.16;;;-5.00;62.03
58295;BME280;45705;55.592;37.460;2023-03-01T00:42:50;98307.41;;;-5.03;61.98
58295;BME280;45705;55.592;37.460;2023-03-01T00:45:16;98301.66;;;-5.00;63.02
58295;BME280;45705;55.592;37.460;2023-03-01T00:47:42;98298.66;;;-5.03;63.79
58295;BME280;45705;55.592;37.460;2023-03-01T00:50:09;98293.41;;;-5.22;63.46
58295;BME280;45705;55.592;37.460;2023-03-01T00:52:36;98296.97;;;-5.28;63.85
58295;BME280;45705;55.592;37.460;2023-03-01T00:55:03;98292.00;;;-5.36;64.63
58295;BME280;45705;55.592;37.460;2023-03-01T00:57:29;98287.28;;;-5.34;64.67
58295;BME280;45705;55.592;37.460;2023-03-01T00:59:55;98284.06;;;-5.36;64.84
58295;BME280;45705;55.592;37.460;2023-03-01T01:02:21;98287.72;;;-5.37;65.29
58295;BME280;45705;55.592;37.460;2023-03-01T01:04:47;98289.69;;;-5.44;64.70
58295;BME280;45705;55.592;37.460;2023-03-01T01:07:13;98279.31;;;-5.46;65.64
58295;BME280;45705;55.592;37.460;2023-03-01T01:09:39;98282.38;;;-5.49;65.03
58295;BME280;45705;55.592;37.460;2023-03-01T01:12:06;98262.47;;;-5.51;65.04
58295;BME280;45705;55.592;37.460;2023-03-01T01:14:31;98284.09;;;-5.55;65.60
58295;BME280;45705;55.592;37.460;2023-03-01T01:16:57;98283.16;;;-5.30;64.59
58295;BME280;45705;55.592;37.460;2023-03-01T01:19:24;98285.91;;;-5.67;65.24
58295;BME280;45705;55.592;37.460;2023-03-01T01:21:50;98280.69;;;-5.43;65.82
58295;BME280;45705;55.592;37.460;2023-03-01T01:24:16;98279.88;;;-5.44;66.11
58295;BME280;45705;55.592;37.460;2023-03-01T01:26:43;98281.72;;;-5.44;65.16
58295;BME280;45705;55.592;37.460;2023-03-01T01:29:09;98283.84;;;-5.65;66.34
58295;BME280;45705;55.592;37.460;2023-03-01T01:31:37;98281.78;;;-5.63;66.74
58295;BME280;45705;55.592;37.460;2023-03-01T01:34:05;98283.75;;;-5.58;66.58
58295;BME280;45705;55.592;37.460;2023-03-01T01:36:33;98281.34;;;-5.60;67.14
58295;BME280;45705;55.592;37.460;2023-03-01T01:38:59;98288.22;;;-5.59;66.53
58295;BME280;45705;55.592;37.460;2023-03-01T01:41:27;98291.84;;;-5.83;68.76
58295;BME280;45705;55.592;37.460;2023-03-01T01:52:15;98290.47;;;-5.74;69.00
58295;BME280;45705;55.592;37.460;2023-03-01T01:54:51;98285.75;;;-5.72;68.53
58295;BME280;45705;55.592;37.460;2023-03-01T01:57:29;98281.00;;;-5.82;69.58
58295;BME280;45705;55.592;37.460;2023-03-01T01:59:58;98293.00;;;-5.79;70.02
58295;BME280;45705;55.592;37.460;2023-03-01T02:02:26;98290.03;;;-5.71;70.50
58295;BME280;45705;55.592;37.460;2023-03-01T02:07:43;98288.72;;;-5.80;70.19
58295;BME280;45705;55.592;37.460;2023-03-01T02:10:13;98281.09;;;-5.88;70.57
58295;BME280;45705;55.592;37.460;2023-03-01T02:12:39;98281.91;;;-5.88;71.38
58295;BME280;45705;55.592;37.460;2023-03-01T02:15:05;98285.28;;;-5.81;70.92
58295;BME280;45705;55.592;37.460;2023-03-01T02:17:32;98241.03;;;-5.92;70.78
58295;BME280;45705;55.592;37.460;2023-03-01T02:20:24;98284.00;;;-5.78;70.99
58295;BME280;45705;55.592;37.460;2023-03-01T02:22:53;98256.00;;;-5.98;71.63
58295;BME280;45705;55.592;37.460;2023-03-01T02:30:22;98275.41;;;-6.04;73.12
58295;BME280;45705;55.592;37.460;2023-03-01T02:32:50;98282.91;;;-6.01;73.66
58295;BME280;45705;55.592;37.460;2023-03-01T02:35:17;98288.94;;;-6.12;74.53
58295;BME280;45705;55.592;37.460;2023-03-01T02:37:45;98281.91;;;-6.18;74.32
58295;BME280;45705;55.592;37.460;2023-03-01T02:40:14;98296.00;;;-6.06;74.70
58295;BME280;45705;55.592;37.460;2023-03-01T02:42:50;98289.22;;;-6.02;74.24
58295;BME280;45705;55.592;37.460;2023-03-01T02:45:17;98303.03;;;-6.00;74.84
58295;BME280;45705;55.592;37.460;2023-03-01T02:47:43;98293.78;;;-6.09;74.96
58295;BME280;45705;55.592;37.460;2023-03-01T02:53:21;98290.44;;;-6.16;76.04
58295;BME280;45705;55.592;37.460;2023-03-01T02:55:53;98288.44;;;-6.02;75.29
58295;BME280;45705;55.592;37.460;2023-03-01T02:58:19;98282.50;;;-6.16;75.72
58295;BME280;45705;55.592;37.460;2023-03-01T03:00:46;98291.16;;;-6.27;76.61
58295;BME280;45705;55.592;37.460;2023-03-01T03:03:15;98297.84;;;-6.43;77.34
58295;BME280;45705;55.592;37.460;2023-03-01T03:05:42;98298.38;;;-6.16;77.44
58295;BME280;45705;55.592;37.460;2023-03-01T03:08:08;98292.69;;;-6.20;76.99
58295;BME280;45705;55.592;37.460;2023-03-01T03:10:39;98288.28;;;-6.26;76.83
58295;BME280;45705;55.592;37.460;2023-03-01T03:13:08;98287.78;;;-6.16;77.02
58295;BME280;45705;55.592;37.460;2023-03-01T03:15:35;98292.75;;;-6.26;77.56
58295;BME280;45705;55.592;37.460;2023-03-01T03:18:07;98296.59;;;-6.41;78.29
58295;BME280;45705;55.592;37.460;2023-03-01T03:20:34;98302.03;;;-6.36;78.94
58295;BME280;45705;55.592;37.460;2023-03-01T03:23:00;98292.47;;;-6.37;79.09
58295;BME280;45705;55.592;37.460;2023-03-01T03:25:27;98301.00;;;-6.35;78.58
58295;BME280;45705;55.592;37.460;2023-03-01T03:27:53;98297.63;;;-6.23;78.42
58295;BME280;45705;55.592;37.460;2023-03-01T03:30:24;98294.91;;;-6.35;79.32
58295;BME280;45705;55.592;37.460;2023-03-01T03:32:50;98297.47;;;-6.28;78.82
58295;BME280;45705;55.592;37.460;2023-03-01T03:35:22;98303.03;;;-6.37;79.27
58295;BME280;45705;55.592;37.460;2023-03-01T03:37:50;98301.38;;;-6.31;79.02
58295;BME280;45705;55.592;37.460;2023-03-01T03:40:31;98309.72;;;-6.53;80.19
58295;BME280;45705;55.592;37.460;2023-03-01T03:42:57;98316.84;;;-6.35;80.07
58295;BME280;45705;55.592;37.460;2023-03-01T03:45:23;98304.44;;;-6.34;79.32
58295;BME280;45705;55.592;37.460;2023-03-01T03:47:49;98318.31;;;-6.39;79.26
58295;BME280;45705;55.592;37.460;2023-03-01T03:50:16;98321.34;;;-6.35;79.54
58295;BME280;45705;55.592;37.460;2023-03-01T03:52:42;98313.75;;;-6.50;79.88
58295;BME280;45705;55.592;37.460;2023-03-01T03:55:09;98305.91;;;-6.38;80.24
58295;BME280;45705;55.592;37.460;2023-03-01T03:57:37;98307.16;;;-6.41;80.25
58295;BME280;45705;55.592;37.460;2023-03-01T04:00:04;98304.22;;;-6.51;80.81
58295;BME280;45705;55.592;37.460;2023-03-01T04:02:40;98309.97;;;-6.36;80.30
58295;BME280;45705;55.592;37.460;2023-03-01T04:05:07;98310.97;;;-6.55;81.30
58295;BME280;45705;55.592;37.460;2023-03-01T04:07:37;98312.28;;;-6.46;80.82
58295;BME280;45705;55.592;37.460;2023-03-01T04:10:04;98315.19;;;-6.47;81.45
58295;BME280;45705;55.592;37.460;2023-03-01T04:12:33;98310.69;;;-6.28;80.42
58295;BME280;45705;55.592;37.460;2023-03-01T04:15:07;98314.81;;;-6.32;79.89
58295;BME280;45705;55.592;37.460;2023-03-01T04:17:43;98321.25;;;-6.47;81.25
58295;BME280;45705;55.592;37.460;2023-03-01T04:20:11;98327.06;;;-6.38;80.77
58295;BME280;45705;55.592;37.460;2023-03-01T04:22:39;98328.44;;;-6.54;80.95
58295;BME280;45705;55.592;37.460;2023-03-01T04:25:07;98334.34;;;-6.34;80.49
58295;BME280;45705;55.592;37.460;2023-03-01T04:27:34;98332.06;;;-6.48;80.60
58295;BME280;45705;55.592;37.460;2023-03-01T04:30:00;98328.53;;;-6.42;81.00
58295;BME280;45705;55.592;37.460;2023-03-01T04:32:30;98334.09;;;-6.50;81.59
58295;BME280;45705;55.592;37.460;2023-03-01T04:35:00;98330.28;;;-6.36;80.19
58295;BME280;45705;55.592;37.460;2023-03-01T04:37:26;98331.81;;;-5.91;79.58
58295;BME280;45705;55.592;37.460;2023-03-01T04:39:52;98327.00;;;-5.04;74.87
58295;BME280;45705;55.592;37.460;2023-03-01T04:42:18;98326.81;;;-4.31;70.13
58295;BME280;45705;55.592;37.460;2023-03-01T04:44:45;98332.16;;;-3.79;66.00
58295;BME280;45705;55.592;37.460;2023-03-01T04:47:11;98332.34;;;-3.69;64.25
58295;BME280;45705;55.592;37.460;2023-03-01T04:49:36;98333.31;;;-3.18;62.40
58295;BME280;45705;55.592;37.460;2023-03-01T04:52:03;98329.53;;;-3.22;60.83
58295;BME280;45705;55.592;37.460;2023-03-01T04:54:33;98331.94;;;-3.03;60.58
58295;BME280;45705;55.592;37.460;2023-03-01T04:57:00;98329.78;;;-2.39;58.38
58295;BME280;45705;55.592;37.460;2023-03-01T04:59:26;98336.56;;;-2.48;57.49
58295;BME280;45705;55.592;37.460;2023-03-01T05:01:54;98336.94;;;-3.24;59.35
58295;BME280;45705;55.592;37.460;2023-03-01T05:04:24;98334.81;;;-2.59;58.32
58295;BME280;45705;55.592;37.460;2023-03-01T05:06:50;98328.50;;;-2.70;57.51
58295;BME280;45705;55.592;37.460;2023-03-01T05:09:16;98334.97;;;-2.83;59.14
58295;BME280;45705;55.592;37.460;2023-03-01T05:11:42;98349.47;;;-2.40;57.77
58295;BME280;45705;55.592;37.460;2023-03-01T05:14:09;98348.19;;;-2.71;57.61
58295;BME280;45705;55.592;37.460;2023-03-01T05:16:35;98347.66;;;-2.17;56.60
58295;BME280;45705;55.592;37.460;2023-03-01T05:19:02;98341.66;;;-0.54;51.72
58295;BME280;45705;55.592;37.460;2023-03-01T05:21:37;98335.88;;;-0.78;50.08
58295;BME280;45705;55.592;37.460;2023-03-01T05:24:24;98341.81;;;-1.53;51.42
58295;BME280;45705;55.592;37.460;2023-03-01T05:26:50;98344.59;;;-2.09;54.49
58295;BME280;45705;55.592;37.460;2023-03-01T05:29:21;98350.31;;;-1.56;53.94
58295;BME280;45705;55.592;37.460;2023-03-01T05:31:55;98351.16;;;-1.94;54.39
58295;BME280;45705;55.592;37.460;2023-03-01T05:34:25;98361.09;;;-2.63;55.32
58295;BME280;45705;55.592;37.460;2023-03-01T05:36:52;98360.25;;;-2.97;57.62
58295;BME280;45705;55.592;37.460;2023-03-01T05:39:23;98364.53;;;-3.25;59.19
58295;BME280;45705;55.592;37.460;2023-03-01T05:41:53;98374.13;;;-3.52;60.58
58295;BME280;45705;55.592;37.460;2023-03-01T05:44:19;98372.03;;;-3.50;60.69
58295;BME280;45705;55.592;37.460;2023-03-01T05:46:46;98374.84;;;-3.69;61.11
58295;BME280;45705;55.592;37.460;2023-03-01T05:49:12;98382.41;;;-3.37;61.18
58295;BME280;45705;55.592;37.460;2023-03-01T05:51:40;98375.00;;;-3.35;60.14
58295;BME280;45705;55.592;37.460;2023-03-01T05:54:07;98376.75;;;-3.41;60.14
58295;BME280;45705;55.592;37.460;2023-03-01T05:56:34;98384.19;;;-3.26;61.14
58295;BME280;45705;55.592;37.460;2023-03-01T05:59:01;98387.72;;;-3.37;61.01
58295;BME280;45705;55.592;37.460;2023-03-01T06:01:29;98386.28;;;-3.28;60.50
58295;BME280;45705;55.592;37.460;2023-03-01T06:03:55;98380.22;;;-3.11;59.58
58295;BME280;45705;55.592;37.460;2023-03-01T06:06:23;98380.72;;;-2.98;59.42
58295;BME280;45705;55.592;37.460;2023-03-01T06:08:50;98385.78;;;-2.67;58.65
58295;BME280;45705;55.592;37.460;2023-03-01T06:11:16;98382.53;;;-2.69;57.60
58295;BME280;45705;55.592;37.460;2023-03-01T06:13:42;98383.31;;;-2.86;58.22
58295;BME280;45705;55.592;37.460;2023-03-01T06:16:08;98393.03;;;-2.63;58.40
58295;BME280;45705;55.592;37.460;2023-03-01T06:18:35;98378.84;;;-2.51;57.00
58295;BME280;45705;55.592;37.460;2023-03-01T06:21:02;98378.50;;;-2.89;58.02
58295;BME280;45705;55.592;37.460;2023-03-01T06:23:28;98398.88;;;-2.78;58.36
58295;BME280;45705;55.592;37.460;2023-03-01T06:25:53;98399.47;;;-2.59;57.75
58295;BME280;45705;55.592;37.460;2023-03-01T06:28:19;98404.84;;;-2.03;56.44
58295;BME280;45705;55.592;37.460;2023-03-01T06:30:45;98409.31;;;-2.25;56.57
58295;BME280;45705;55.592;37.460;2023-03-01T06:33:11;98413.03;;;-2.26;55.94
58295;BME280;45705;55.592;37.460;2023-03-01T06:35:37;98409.72;;;-2.67;56.01
58295;BME280;45705;55.592;37.460;2023-03-01T06:38:04;98412.16;;;-2.15;57.24
58295;BME280;45705;55.592;37.460;2023-03-01T06:40:30;98406.84;;;-1.76;54.20
58295;BME280;45705;55.592;37.460;2023-03-01T06:42:57;98407.53;;;-1.20;52.62
58295;BME280;45705;55.592;37.460;2023-03-01T06:45:23;98406.44;;;0.06;48.84
58295;BME280;45705;55.592;37.460;2023-03-01T06:47:50;98406.66;;;-0.44;48.44
58295;BME280;45705;55.592;37.460;2023-03-01T06:50:17;98410.88;;;0.27;47.94
58295;BME280;45705;55.592;37.460;2023-03-01T06:52:43;98408.16;;;-0.53;48.37
58295;BME280;45705;55.592;37.460;2023-03-01T06:55:11;98416.41;;;-0.87;49.50
58295;BME280;45705;55.592;37.460;2023-03-01T06:57:38;98400.31;;;-0.65;49.73
58295;BME280;45705;55.592;37.460;2023-03-01T07:00:04;98401.25;;;0.26;48.10
58295;BME280;45705;55.592;37.460;2023-03-01T07:02:31;98401.13;;;0.58;46.46
58295;BME280;45705;55.592;37.460;2023-03-01T07:04:57;98405.03;;;0.35;46.40
58295;BME280;45705;55.592;37.460;2023-03-01T07:07:23;98412.22;;;-0.13;48.16
58295;BME280;45705;55.592;37.460;2023-03-01T07:09:51;98402.91;;;0.37;46.79
58295;BME280;45705;55.592;37.460;2023-03-01T07:12:18;98413.28;;;0.29;46.74
58295;BME280;45705;55.592;37.460;2023-03-01T07:14:44;98418.22;;;0.05;47.21
58295;BME280;45705;55.592;37.460;2023-03-01T07:17:10;98425.53;;;-0.18;48.13
58295;BME280;45705;55.592;37.460;2023-03-01T07:19:35;98416.94;;;0.65;45.49
58295;BME280;45705;55.592;37.460;2023-03-01T07:22:03;98419.50;;;0.39;46.68
58295;BME280;45705;55.592;37.460;2023-03-01T07:24:29;98431.81;;;0.46;46.72
58295;BME280;45705;55.592;37.460;2023-03-01T07:26:55;98421.34;;;1.12;45.55
58295;BME280;45705;55.592;37.460;2023-03-01T07:29:21;98417.16;;;1.88;43.43
58295;BME280;45705;55.592;37.460;2023-03-01T07:31:46;98426.78;;;2.05;42.96
58295;BME280;45705;55.592;37.460;2023-03-01T07:34:12;98415.50;;;2.18;42.59
58295;BME280;45705;55.592;37.460;2023-03-01T07:36:38;98418.69;;;2.30;41.93
58295;BME280;45705;55.592;37.460;2023-03-01T07:39:05;98427.81;;;2.29;41.71
58295;BME280;45705;55.592;37.460;2023-03-01T07:41:30;98429.50;;;1.84;42.19
58295;BME280;45705;55.592;37.460;2023-03-01T07:43:56;98430.47;;;1.22;43.12
58295;BME280;45705;55.592;37.460;2023-03-01T07:46:22;98432.09;;;1.17;43.97
58295;BME280;45705;55.592;37.460;2023-03-01T07:48:47;98441.66;;;0.88;44.59
58295;BME280;45705;55.592;37.460;2023-03-01T07:51:13;98449.50;;;0.52;45.88
58295;BME280;45705;55.592;37.460;2023-03-01T07:53:39;98456.78;;;0.19;46.72
58295;BME280;45705;55.592;37.460;2023-03-01T07:58:34;98454.13;;;0.19;47.26
58295;BME280;45705;55.592;37.460;2023-03-01T08:01:08;98455.31;;;-0.36;49.26
58295;BME280;45705;55.592;37.460;2023-03-01T08:03:34;98456.22;;;-0.53;50.05
58295;BME280;45705;55.592;37.460;2023-03-01T08:06:02;98456.06;;;-0.68;50.47
58295;BME280;45705;55.592;37.460;2023-03-01T08:08:28;98457.16;;;-0.69;51.39
58295;BME280;45705;55.592;37.460;2023-03-01T08:10:57;98444.66;;;-0.64;51.63
58295;BME280;45705;55.592;37.460;2023-03-01T08:13:22;98460.31;;;-1.22;51.92
58295;BME280;45705;55.592;37.460;2023-03-01T08:15:48;98460.75;;;-1.30;53.88
58295;BME280;45705;55.592;37.460;2023-03-01T08:18:15;98456.56;;;-1.21;52.63
58295;BME280;45705;55.592;37.460;2023-03-01T08:20:41;98456.81;;;-1.44;53.18
58295;BME280;45705;55.592;37.460;2023-03-01T08:23:07;98455.56;;;-1.14;53.96
58295;BME280;45705;55.592;37.460;2023-03-01T08:25:33;98448.94;;;-1.12;53.44
58295;BME280;45705;55.592;37.460;2023-03-01T08:27:58;98464.44;;;-1.53;54.15
58295;BME280;45705;55.592;37.460;2023-03-01T08:30:24;98453.50;;;-1.51;55.04
58295;BME280;45705;55.592;37.460;2023-03-01T08:32:50;98452.66;;;-1.57;55.00
58295;BME280;45705;55.592;37.460;2023-03-01T08:35:17;98464.69;;;-1.32;55.33
58295;BME280;45705;55.592;37.460;2023-03-01T08:37:43;98459.41;;;-1.49;55.51
58295;BME280;45705;55.592;37.460;2023-03-01T08:40:09;98456.63;;;-1.15;54.88
58295;BME280;45705;55.592;37.460;2023-03-01T08:42:36;98455.09;;;-1.33;55.99
58295;BME280;45705;55.592;37.460;2023-03-01T08:45:03;98471.97;;;-1.28;55.26
58295;BME280;45705;55.592;37.460;2023-03-01T08:47:29;98468.13;;;-1.37;55.01
58295;BME280;45705;55.592;37.460;2023-03-01T08:49:55;98473.13;;;-1.41;54.77
58295;BME280;45705;55.592;37.460;2023-03-01T08:52:21;98475.19;;;-1.26;55.24
58295;BME280;45705;55.592;37.460;2023-03-01T08:54:47;98470.38;;;-1.46;54.52
58295;BME280;45705;55.592;37.460;2023-03-01T08:57:13;98475.56;;;-0.95;56.00
58295;BME280;45705;55.592;37.460;2023-03-01T08:59:39;98455.84;;;-1.16;55.62
58295;BME280;45705;55.592;37.460;2023-03-01T09:02:12;98466.47;;;-1.38;55.53
58295;BME280;45705;55.592;37.460;2023-03-01T09:04:38;98467.00;;;-1.41;54.87
58295;BME280;45705;55.592;37.460;2023-03-01T09:07:04;98477.03;;;-1.48;55.83
58295;BME280;45705;55.592;37.460;2023-03-01T09:09:30;98477.78;;;-1.31;56.04
58295;BME280;45705;55.592;37.460;2023-03-01T09:11:57;98480.25;;;-1.46;57.30
58295;BME280;45705;55.592;37.460;2023-03-01T09:14:22;98472.72;;;-1.10;55.71
58295;BME280;45705;55.592;37.460;2023-03-01T09:16:48;98479.66;;;-1.09;55.02
58295;BME280;45705;55.592;37.460;2023-03-01T09:19:14;98468.72;;;-0.86;55.05
58295;BME280;45705;55.592;37.460;2023-03-01T09:21:40;98477.59;;;-0.53;53.96
58295;BME280;45705;55.592;37.460;2023-03-01T09:24:13;98478.38;;;-0.80;54.41
58295;BME280;45705;55.592;37.460;2023-03-01T09:26:39;98475.22;;;-0.49;53.31
58295;BME280;45705;55.592;37.460;2023-03-01T09:29:04;98491.16;;;-0.82;53.64
58295;BME280;45705;55.592;37.460;2023-03-01T09:31:30;98483.31;;;-0.66;54.49
58295;BME280;45705;55.592;37.460;2023-03-01T09:33:56;98480.72;;;-0.61;53.93
58295;BME280;45705;55.592;37.460;2023-03-01T09:36:24;98483.59;;;-0.90;54.39
58295;BME280;45705;55.592;37.460;2023-03-01T09:38:51;98484.34;;;-1.16;54.44
58295;BME280;45705;55.592;37.460;2023-03-01T09:46:37;98482.13;;;-0.81;54.29
58295;BME280;45705;55.592;37.460;2023-03-01T09:49:10;98476.97;;;-0.87;55.23
58295;BME280;45705;55.592;37.460;2023-03-01T09:51:37;98478.53;;;-1.13;54.94
58295;BME280;45705;55.592;37.460;2023-03-01T09:54:04;98482.75;;;-0.95;54.82
58295;BME280;45705;55.592;37.460;2023-03-01T09:56:41;98488.84;;;-1.00;55.71
58295;BME280;45705;55.592;37.460;2023-03-01T09:59:40;98491.00;;;-1.19;56.58
58295;BME280;45705;55.592;37.460;2023-03-01T10:02:28;98469.59;;;-1.02;56.91
58295;BME280;45705;55.592;37.460;2023-03-01T10:05:01;98498.06;;;-0.86;56.36
58295;BME280;45705;55.592;37.460;2023-03-01T10:07:58;98496.25;;;-0.58;55.31
58295;BME280;45705;55.592;37.460;2023-03-01T10:10:31;98484.22;;;-0.28;54.07
58295;BME280;45705;55.592;37.460;2023-03-01T10:13:01;98496.78;;;0.04;53.70
58295;BME280;45705;55.592;37.460;2023-03-01T10:15:41;98508.44;;;-0.62;54.59
58295;BME280;45705;55.592;37.460;2023-03-01T10:18:20;98505.69;;;-0.72;56.16
58295;BME280;45705;55.592;37.460;2023-03-01T10:20:58;98501.06;;;-0.28;55.27
58295;BME280;45705;55.592;37.460;2023-03-01T10:23:25;98495.91;;;-0.07;54.12
58295;BME280;45705;55.592;37.460;2023-03-01T10:26:06;98513.28;;;0.28;52.84
58295;BME280;45705;55.592;37.460;2023-03-01T10:31:33;98515.09;;;-0.43;53.73
58295;BME280;45705;55.592;37.460;2023-03-01T10:34:11;98519.09;;;-0.67;53.84
58295;BME280;45705;55.592;37.460;2023-03-01T10:36:38;98523.53;;;-1.00;55.09
58295;BME280;45705;55.592;37.460;2023-03-01T10:39:12;98533.22;;;-1.33;56.13
58295;BME280;45705;55.592;37.460;2023-03-01T10:44:39;98526.81;;;-1.32;57.42
58295;BME280;45705;55.592;37.460;2023-03-01T10:47:33;98531.47;;;-1.61;57.70
58295;BME280;45705;55.592;37.460;2023-03-01T10:50:02;98526.13;;;-1.44;57.81
58295;BME280;45705;55.592;37.460;2023-03-01T10:52:35;98518.91;;;-1.27;56.55
58295;BME280;45705;55.592;37.460;2023-03-01T10:55:18;98519.25;;;-1.40;55.76
58295;BME280;45705;55.592;37.460;2023-03-01T10:57:49;98516.47;;;-1.50;56.77
58295;BME280;45705;55.592;37.460;2023-03-01T11:00:24;98501.13;;;-1.77;57.31
58295;BME280;45705;55.592;37.460;2023-03-01T11:03:02;98523.53;;;-1.22;57.08
58295;BME280;45705;55.592;37.460;2023-03-01T11:05:29;98524.66;;;-1.35;56.14
58295;BME280;45705;55.592;37.460;2023-03-01T11:07:57;98527.97;;;-1.28;55.97
58295;BME280;45705;55.592;37.460;2023-03-01T11:13:09;98518.72;;;-0.76;54.06
58295;BME280;45705;55.592;37.460;2023-03-01T11:15:40;98512.25;;;-0.58;53.40
58295;BME280;45705;55.592;37.460;2023-03-01T11:18:21;98507.91;;;-0.64;53.17
58295;BME280;45705;55.592;37.460;2023-03-01T11:20:48;98515.88;;;-0.42;52.22
58295;BME280;45705;55.592;37.460;2023-03-01T11:23:15;98513.78;;;-0.62;51.48
58295;BME280;45705;55.592;37.460;2023-03-01T11:26:02;98508.41;;;-0.67;51.76
58295;BME280;45705;55.592;37.460;2023-03-01T11:28:30;98507.03;;;-0.48;51.46
58295;BME280;45705;55.592;37.460;2023-03-01T11:33:35;98507.19;;;-0.82;52.07
58295;BME280;45705;55.592;37.460;2023-03-01T11:38:34;98516.06;;;-1.20;52.50
58295;BME280;45705;55.592;37.460;2023-03-01T11:41:14;98523.97;;;-1.08;51.53
58295;BME280;45705;55.592;37.460;2023-03-01T11:44:03;98525.94;;;-0.76;51.71
58295;BME280;45705;55.592;37.460;2023-03-01T11:46:40;98517.91;;;-0.76;51.86
58295;BME280;45705;55.592;37.460;2023-03-01T12:06:21;98524.25;;;-0.33;48.86
58295;BME280;45705;55.592;37.460;2023-03-01T12:09:04;98526.88;;;-0.11;49.07
58295;BME280;45705;55.592;37.460;2023-03-01T12:21:05;98527.59;;;-0.48;50.18
58295;BME280;45705;55.592;37.460;2023-03-01T12:24:01;98534.50;;;-0.25;50.73
58295;BME280;45705;55.592;37.460;2023-03-01T12:26:33;98530.25;;;-0.21;50.73
58295;BME280;45705;55.592;37.460;2023-03-01T12:32:09;98529.88;;;-0.57;50.71
58295;BME280;45705;55.592;37.460;2023-03-01T12:40:10;98527.69;;;-0.38;52.20
58295;BME280;45705;55.592;37.460;2023-03-01T12:50:59;98535.25;;;-0.79;53.83
58295;BME280;45705;55.592;37.460;2023-03-01T12:53:31;98531.53;;;-1.00;54.12
58295;BME280;45705;55.592;37.460;2023-03-01T12:56:12;98532.28;;;-0.83;54.23
58295;BME280;45705;55.592;37.460;2023-03-01T12:59:02;98541.69;;;-0.97;54.01
58295;BME280;45705;55.592;37.460;2023-03-01T13:02:01;98541.63;;;-1.02;53.25
58295;BME280;45705;55.592;37.460;2023-03-01T13:07:21;98549.00;;;-1.09;53.63
58295;BME280;45705;55.592;37.460;2023-03-01T13:12:47;98543.34;;;-1.69;54.78
58295;BME280;45705;55.592;37.460;2023-03-01T13:15:26;98547.97;;;-1.81;56.60
58295;BME280;45705;55.592;37.460;2023-03-01T13:18:02;98547.22;;;-1.43;54.96
58295;BME280;45705;55.592;37.460;2023-03-01T13:31:10;98520.22;;;-1.85;53.77
58295;BME280;45705;55.592;37.460;2023-03-01T13:33:47;98535.88;;;-1.89;54.13
58295;BME280;45705;55.592;37.460;2023-03-01T13:39:26;98524.81;;;-1.98;56.03
58295;BME280;45705;55.592;37.460;2023-03-01T13:41:53;98542.97;;;-1.94;56.62
58295;BME280;45705;55.592;37.460;2023-03-01T13:44:38;98536.97;;;-2.02;57.58
58295;BME280;45705;55.592;37.460;2023-03-01T13:47:14;98540.94;;;-2.04;57.95
58295;BME280;45705;55.592;37.460;2023-03-01T13:52:40;98532.25;;;-2.00;56.17
58295;BME280;45705;55.592;37.460;2023-03-01T13:57:40;98529.88;;;-2.13;55.68
58295;BME280;45705;55.592;37.460;2023-03-01T14:03:04;98532.00;;;-2.44;55.23
58295;BME280;45705;55.592;37.460;2023-03-01T14:05:32;98534.69;;;-2.44;55.12
58295;BME280;45705;55.592;37.460;2023-03-01T14:07:58;98530.09;;;-2.60;54.44
58295;BME280;45705;55.592;37.460;2023-03-01T14:10:36;98523.47;;;-2.46;55.09
58295;BME280;45705;55.592;37.460;2023-03-01T14:13:20;98508.19;;;-2.50;56.55
58295;BME280;45705;55.592;37.460;2023-03-01T14:16:07;98524.31;;;-2.57;54.89
58295;BME280;45705;55.592;37.460;2023-03-01T14:19:03;98510.78;;;-2.55;55.97
58295;BME280;45705;55.592;37.460;2023-03-01T14:21:33;98518.38;;;-2.76;56.12
58295;BME280;45705;55.592;37.460;2023-03-01T14:23:59;98517.97;;;-2.68;57.08
58295;BME280;45705;55.592;37.460;2023-03-01T14:26:24;98513.44;;;-2.55;56.41
58295;BME280;45705;55.592;37.460;2023-03-01T14:28:51;98507.09;;;-2.66;57.22
58295;BME280;45705;55.592;37.460;2023-03-01T14:34:02;98510.34;;;-2.64;59.45
58295;BME280;45705;55.592;37.460;2023-03-01T14:36:30;98499.41;;;-2.51;60.25
58295;BME280;45705;55.592;37.460;2023-03-01T14:38:57;98498.22;;;-2.43;60.09
58295;BME280;45705;55.592;37.460;2023-03-01T14:41:34;98497.31;;;-2.78;60.88
58295;BME280;45705;55.592;37.460;2023-03-01T14:44:05;98501.88;;;-2.61;61.75
58295;BME280;45705;55.592;37.460;2023-03-01T14:46:39;98496.38;;;-2.71;62.74
58295;BME280;45705;55.592;37.460;2023-03-01T14:49:12;98499.13;;;-2.66;63.89
58295;BME280;45705;55.592;37.460;2023-03-01T14:51:42;98487.03;;;-2.28;62.13
58295;BME280;45705;55.592;37.460;2023-03-01T14:56:53;98494.88;;;-2.50;63.74
58295;BME280;45705;55.592;37.460;2023-03-01T14:59:22;98478.34;;;-2.69;65.66